Time;durP1;ratioP1;P1;durP2;ratioP2;P2;SDS_P1;SDS_P2;PMS_P1;PMS_P2;Temp;Humidity;BMP_temperature;BMP_pressure;BME280_temperature;BME280_humidity;BME280_pressure;Samples;Min_cycle;Max_cycle;Signal;HPM_P1;HPM_P2
2021/06/06 00:01:59;;;;;;;16.13;13.40;;;;;;;;;;746766;187;917713;-74
2021/06/06 00:04:25;;;;;;;14.80;12.73;;;;;;;;;;740641;187;816675;-75
2021/06/06 00:06:52;;;;;;;15.73;13.68;;;;;;;;;;742487;187;918367;-75
2021/06/06 00:09:18;;;;;;;19.33;13.30;;;;;;;;;;743237;187;917762;-74
2021/06/06 00:11:44;;;;;;;20.20;11.90;;;;;;;;;;738514;187;917376;-75
2021/06/06 00:14:10;;;;;;;13.80;12.33;;;;;;;;;;738340;187;917645;-75
2021/06/06 00:16:36;;;;;;;17.20;13.43;;;;;;;;;;748119;187;918676;-75
2021/06/06 00:19:02;;;;;;;14.57;12.60;;;;;;;;;;747644;187;816037;-75
2021/06/06 00:21:28;;;;;;;20.48;13.90;;;;;;;;;;746699;187;1016545;-74
2021/06/06 00:23:54;;;;;;;17.03;12.97;;;;;;;;;;741047;187;914980;-75
2021/06/06 00:26:20;;;;;;;16.20;12.57;;;;;;;;;;746842;187;818314;-75
2021/06/06 00:28:46;;;;;;;17.40;15.03;;;;;;;;;;742040;187;812807;-75
2021/06/06 00:31:12;;;;;;;16.97;14.60;;;;;;;;;;745489;187;914187;-75
2021/06/06 00:33:38;;;;;;;23.10;18.30;;;;;;;;;;745173;186;915532;-74
2021/06/06 00:36:04;;;;;;;22.03;18.20;;;;;;;;;;743541;186;915321;-75
2021/06/06 00:38:30;;;;;;;21.57;18.30;;;;;;;;;;746031;186;918999;-75
2021/06/06 00:40:58;;;;;;;27.00;20.07;;;;;;;;;;740865;186;918352;-74
2021/06/06 00:43:22;;;;;;;24.83;20.80;;;;;;;;;;743439;186;913214;-73
2021/06/06 00:45:48;;;;;;;29.17;21.27;;;;;;;;;;746808;186;713585;-73
2021/06/06 00:48:14;;;;;;;27.17;22.00;;;;;;;;;;744760;186;810480;-74
2021/06/06 00:50:40;;;;;;;33.87;24.27;;;;;;;;;;744349;186;710908;-74
2021/06/06 00:53:06;;;;;;;30.60;24.00;;;;;;;;;;740995;186;916655;-74
2021/06/06 00:55:32;;;;;;;28.27;23.20;;;;;;;;;;738560;187;918796;-74
2021/06/06 00:57:57;;;;;;;26.60;22.10;;;;;;;;;;748635;186;919277;-75
2021/06/06 01:00:23;;;;;;;27.07;19.63;;;;;;;;;;743120;186;921165;-75
2021/06/06 01:02:49;;;;;;;28.20;21.10;;;;;;;;;;740037;186;1019562;-74
2021/06/06 01:05:16;;;;;;;29.97;22.60;;;;;;;;;;749770;186;649190;-74
2021/06/06 01:07:42;;;;;;;28.70;21.63;;;;;;;;;;742534;186;812896;-74
2021/06/06 01:10:08;;;;;;;23.53;18.43;;;;;;;;;;738807;187;822198;-75
2021/06/06 01:12:34;;;;;;;28.30;21.27;;;;;;;;;;740878;187;812455;-75
2021/06/06 01:14:59;;;;;;;28.62;20.25;;;;;;;;;;746947;187;915991;-74
2021/06/06 01:17:46;;;;;;;23.53;19.90;;;;;;;;;;741080;187;1021538;-74
2021/06/06 01:20:18;;;;;;;26.53;20.70;;;;;;;;;;738633;187;918318;-74
2021/06/06 01:22:45;;;;;;;26.30;19.70;;;;;;;;;;739516;187;919527;-75
2021/06/06 01:25:15;;;;;;;23.17;18.77;;;;;;;;;;741788;187;929860;-75
2021/06/06 01:27:41;;;;;;;28.40;19.73;;;;;;;;;;749575;187;918373;-74
2021/06/06 01:30:07;;;;;;;25.83;21.70;;;;;;;;;;741513;187;916767;-74
2021/06/06 01:32:37;;;;;;;25.75;20.95;;;;;;;;;;740465;187;918940;-74
2021/06/06 01:35:13;;;;;;;24.92;21.15;;;;;;;;;;744878;187;917998;-74
2021/06/06 01:37:39;;;;;;;30.07;21.77;;;;;;;;;;742399;187;834567;-75
2021/06/06 01:40:05;;;;;;;27.13;21.35;;;;;;;;;;742884;187;814743;-75
2021/06/06 01:42:31;;;;;;;29.90;23.27;;;;;;;;;;740683;187;918389;-75
2021/06/06 01:44:57;;;;;;;28.30;23.27;;;;;;;;;;754132;186;918233;-75
2021/06/06 01:47:24;;;;;;;30.63;23.40;;;;;;;;;;746026;186;917947;-74
2021/06/06 01:49:50;;;;;;;25.63;21.93;;;;;;;;;;740716;186;1427417;-75
2021/06/06 01:52:15;;;;;;;31.97;24.53;;;;;;;;;;746929;186;863718;-75
2021/06/06 01:54:41;;;;;;;32.60;25.23;;;;;;;;;;749339;186;918707;-74
2021/06/06 01:57:07;;;;;;;31.30;24.13;;;;;;;;;;745361;186;897640;-75
2021/06/06 01:59:33;;;;;;;34.50;23.97;;;;;;;;;;742961;186;919213;-75
2021/06/06 02:01:59;;;;;;;28.75;23.17;;;;;;;;;;747918;186;919190;-74
2021/06/06 02:04:25;;;;;;;30.13;24.10;;;;;;;;;;741817;186;918674;-75
2021/06/06 02:06:52;;;;;;;33.77;25.40;;;;;;;;;;741655;186;965393;-75
2021/06/06 02:09:19;;;;;;;28.07;22.73;;;;;;;;;;747044;187;816404;-75
2021/06/06 02:11:47;;;;;;;28.70;22.03;;;;;;;;;;744479;186;815710;-76
2021/06/06 02:14:13;;;;;;;28.30;21.87;;;;;;;;;;740525;186;911556;-75
2021/06/06 02:16:39;;;;;;;26.50;21.63;;;;;;;;;;747381;186;815671;-75
2021/06/06 02:19:05;;;;;;;27.60;21.30;;;;;;;;;;747128;186;919126;-74
2021/06/06 02:21:30;;;;;;;25.43;20.43;;;;;;;;;;746081;187;918825;-75
2021/06/06 02:23:56;;;;;;;25.67;21.00;;;;;;;;;;741011;187;986604;-75
2021/06/06 02:26:22;;;;;;;26.30;20.37;;;;;;;;;;742718;187;923302;-75
2021/06/06 02:28:52;;;;;;;24.90;18.70;;;;;;;;;;738092;187;918731;-74
2021/06/06 02:31:23;;;;;;;27.93;20.57;;;;;;;;;;736304;187;918899;-75
2021/06/06 02:33:50;;;;;;;27.50;21.65;;;;;;;;;;743930;187;821154;-75
2021/06/06 02:36:16;;;;;;;24.43;20.70;;;;;;;;;;750136;187;918699;-75
2021/06/06 02:38:57;;;;;;;23.40;20.10;;;;;;;;;;749551;187;816356;-75
2021/06/06 02:41:23;;;;;;;24.87;21.30;;;;;;;;;;747821;187;918790;-74
2021/06/06 02:43:49;;;;;;;26.42;19.83;;;;;;;;;;741741;187;926905;-74
2021/06/06 02:46:14;;;;;;;26.27;21.23;;;;;;;;;;744143;187;917040;-74
2021/06/06 02:48:40;;;;;;;25.23;20.90;;;;;;;;;;738226;187;918531;-74
2021/06/06 02:51:06;;;;;;;25.30;20.60;;;;;;;;;;740461;187;918189;-74
2021/06/06 02:53:32;;;;;;;27.33;20.00;;;;;;;;;;738413;187;919544;-75
2021/06/06 02:56:00;;;;;;;24.43;20.10;;;;;;;;;;743562;186;920792;-74
2021/06/06 02:58:28;;;;;;;26.30;20.57;;;;;;;;;;748639;186;918842;-74
2021/06/06 03:00:55;;;;;;;22.60;18.30;;;;;;;;;;740312;186;873141;-74
2021/06/06 03:03:21;;;;;;;22.83;17.87;;;;;;;;;;746028;186;965260;-74
2021/06/06 03:05:47;;;;;;;22.30;17.20;;;;;;;;;;737363;186;916044;-74
2021/06/06 03:08:14;;;;;;;23.63;17.10;;;;;;;;;;743452;186;806569;-73
2021/06/06 03:10:39;;;;;;;18.77;15.87;;;;;;;;;;746926;186;811698;-74
2021/06/06 03:13:05;;;;;;;21.37;17.20;;;;;;;;;;739975;186;919162;-74
2021/06/06 03:15:30;;;;;;;19.40;15.63;;;;;;;;;;744002;186;919317;-74
2021/06/06 03:17:56;;;;;;;19.40;16.73;;;;;;;;;;744180;186;918792;-74
2021/06/06 03:20:22;;;;;;;20.93;16.70;;;;;;;;;;752802;186;918143;-74
2021/06/06 03:22:48;;;;;;;18.20;16.03;;;;;;;;;;741348;186;1020003;-74
2021/06/06 03:25:29;;;;;;;20.00;17.77;;;;;;;;;;743195;186;814530;-74
2021/06/06 03:27:55;;;;;;;21.00;16.30;;;;;;;;;;741945;186;919228;-73
2021/06/06 03:30:25;;;;;;;26.03;18.17;;;;;;;;;;747010;186;913475;-73
2021/06/06 03:32:51;;;;;;;26.67;17.00;;;;;;;;;;741118;187;1018547;-74
2021/06/06 03:35:17;;;;;;;25.30;18.83;;;;;;;;;;738792;187;931499;-73
2021/06/06 03:37:43;;;;;;;19.50;16.10;;;;;;;;;;753663;187;813487;-73
2021/06/06 03:40:09;;;;;;;26.23;18.80;;;;;;;;;;742600;187;1245062;-73
2021/06/06 03:42:35;;;;;;;24.77;19.37;;;;;;;;;;746423;187;918728;-73
2021/06/06 03:45:01;;;;;;;22.70;19.40;;;;;;;;;;750288;187;913988;-74
2021/06/06 03:47:27;;;;;;;26.80;22.37;;;;;;;;;;748494;187;872172;-73
2021/06/06 03:49:53;;;;;;;30.87;21.70;;;;;;;;;;740504;187;918904;-73
2021/06/06 03:52:18;;;;;;;31.50;23.90;;;;;;;;;;743157;187;919006;-73
2021/06/06 03:54:44;;;;;;;36.47;26.90;;;;;;;;;;745179;187;918090;-73
2021/06/06 03:57:10;;;;;;;50.00;35.87;;;;;;;;;;740446;187;919709;-74
2021/06/06 03:59:36;;;;;;;58.40;36.67;;;;;;;;;;740709;187;816168;-73
2021/06/06 04:02:02;;;;;;;58.17;37.97;;;;;;;;;;746384;187;832209;-73
2021/06/06 04:04:28;;;;;;;51.67;35.40;;;;;;;;;;745151;187;816786;-73
2021/06/06 04:06:53;;;;;;;55.07;37.30;;;;;;;;;;745837;187;904004;-73
2021/06/06 04:09:19;;;;;;;52.07;37.10;;;;;;;;;;744167;186;918745;-74
2021/06/06 04:11:45;;;;;;;51.20;38.80;;;;;;;;;;741026;186;918826;-73
2021/06/06 04:14:11;;;;;;;53.60;37.00;;;;;;;;;;742579;186;917462;-75
2021/06/06 04:16:37;;;;;;;57.73;39.10;;;;;;;;;;742898;186;863317;-74
2021/06/06 04:19:03;;;;;;;58.80;38.97;;;;;;;;;;742335;186;919502;-73
2021/06/06 04:21:29;;;;;;;59.53;41.50;;;;;;;;;;740627;186;1094185;-73
2021/06/06 04:23:54;;;;;;;54.53;39.97;;;;;;;;;;742271;186;916724;-73
2021/06/06 04:26:20;;;;;;;58.43;38.60;;;;;;;;;;748619;187;816657;-73
2021/06/06 04:28:46;;;;;;;51.17;37.90;;;;;;;;;;745553;186;890770;-74
2021/06/06 04:31:12;;;;;;;52.90;39.13;;;;;;;;;;745629;186;942181;-73
2021/06/06 04:33:38;;;;;;;50.13;37.67;;;;;;;;;;751492;186;918494;-74
2021/06/06 04:36:04;;;;;;;47.00;35.50;;;;;;;;;;742523;186;918831;-74
2021/06/06 04:38:30;;;;;;;51.00;36.63;;;;;;;;;;742297;186;920843;-74
2021/06/06 04:40:56;;;;;;;51.27;36.97;;;;;;;;;;747528;186;889129;-73
2021/06/06 04:43:21;;;;;;;48.73;36.20;;;;;;;;;;743413;187;1232294;-74
2021/06/06 04:45:47;;;;;;;47.90;36.60;;;;;;;;;;738074;187;972231;-75
2021/06/06 04:48:14;;;;;;;44.30;33.50;;;;;;;;;;740720;187;919059;-74
2021/06/06 04:50:40;;;;;;;42.80;33.17;;;;;;;;;;746205;187;906208;-74
2021/06/06 04:53:06;;;;;;;40.60;33.23;;;;;;;;;;745075;187;815249;-74
2021/06/06 04:55:31;;;;;;;41.43;31.10;;;;;;;;;;742136;187;916064;-73
2021/06/06 04:57:57;;;;;;;39.73;28.83;;;;;;;;;;748392;187;710713;-75
2021/06/06 05:00:23;;;;;;;35.63;28.87;;;;;;;;;;742170;187;920301;-74
2021/06/06 05:02:49;;;;;;;40.53;32.03;;;;;;;;;;741299;187;914516;-74
2021/06/06 05:05:15;;;;;;;39.63;29.83;;;;;;;;;;740056;187;918380;-75
2021/06/06 05:07:41;;;;;;;36.77;28.83;;;;;;;;;;750242;184;835419;-75
2021/06/06 05:10:07;;;;;;;35.13;28.23;;;;;;;;;;738737;187;1124552;-75
2021/06/06 05:12:33;;;;;;;37.23;28.53;;;;;;;;;;742656;187;808141;-75
2021/06/06 05:14:58;;;;;;;33.10;25.70;;;;;;;;;;749677;187;733060;-75
2021/06/06 05:17:24;;;;;;;36.27;28.33;;;;;;;;;;741717;187;917590;-74
2021/06/06 05:19:50;;;;;;;39.77;28.60;;;;;;;;;;743409;186;917364;-75
2021/06/06 05:22:16;;;;;;;37.43;28.43;;;;;;;;;;747251;186;918198;-75
2021/06/06 05:24:42;;;;;;;38.27;26.17;;;;;;;;;;742635;186;852884;-75
2021/06/06 05:27:08;;;;;;;35.23;25.40;;;;;;;;;;743661;186;911802;-75
2021/06/06 05:29:33;;;;;;;36.97;25.30;;;;;;;;;;747506;186;910784;-74
2021/06/06 05:31:59;;;;;;;27.53;22.60;;;;;;;;;;730298;186;912262;-76
2021/06/06 05:34:25;;;;;;;32.80;25.47;;;;;;;;;;749440;186;900431;-75
2021/06/06 05:36:51;;;;;;;28.10;22.80;;;;;;;;;;743620;186;911329;-75
2021/06/06 05:39:17;;;;;;;26.83;21.33;;;;;;;;;;749678;186;909331;-75
2021/06/06 05:41:43;;;;;;;26.70;21.40;;;;;;;;;;744859;186;912543;-74
2021/06/06 05:44:09;;;;;;;27.63;22.43;;;;;;;;;;742414;186;1016150;-75
2021/06/06 05:46:34;;;;;;;28.30;23.23;;;;;;;;;;746487;186;911865;-75
2021/06/06 05:49:00;;;;;;;29.33;22.03;;;;;;;;;;743700;186;810583;-74
2021/06/06 05:51:26;;;;;;;27.10;21.60;;;;;;;;;;741615;186;903536;-75
2021/06/06 05:53:52;;;;;;;26.07;21.73;;;;;;;;;;747061;186;932554;-76
2021/06/06 05:56:18;;;;;;;28.50;22.23;;;;;;;;;;740958;187;912755;-74
2021/06/06 05:58:44;;;;;;;34.17;21.42;;;;;;;;;;741642;187;814263;-74
2021/06/06 06:01:09;;;;;;;24.97;19.87;;;;;;;;;;740380;187;1332707;-75
2021/06/06 06:03:35;;;;;;;26.03;20.47;;;;;;;;;;738448;187;912121;-75
2021/06/06 06:06:01;;;;;;;24.12;21.17;;;;;;;;;;740804;187;915841;-75
2021/06/06 06:08:28;;;;;;;26.03;20.90;;;;;;;;;;742909;187;1217035;-76
2021/06/06 06:10:54;;;;;;;33.72;20.70;;;;;;;;;;745140;187;868753;-75
2021/06/06 06:13:20;;;;;;;23.43;19.40;;;;;;;;;;739384;187;898170;-75
2021/06/06 06:15:45;;;;;;;21.63;17.97;;;;;;;;;;743007;187;911545;-75
2021/06/06 06:18:11;;;;;;;21.53;16.97;;;;;;;;;;747235;187;910142;-75
2021/06/06 06:20:37;;;;;;;19.43;16.23;;;;;;;;;;743727;187;915131;-75
2021/06/06 06:23:03;;;;;;;21.43;19.10;;;;;;;;;;746462;187;916370;-75
2021/06/06 06:25:29;;;;;;;20.00;17.53;;;;;;;;;;746769;187;915701;-75
2021/06/06 06:27:55;;;;;;;27.00;16.30;;;;;;;;;;739383;187;915870;-75
2021/06/06 06:30:21;;;;;;;20.63;15.80;;;;;;;;;;738802;186;1013324;-75
2021/06/06 06:32:46;;;;;;;18.80;14.73;;;;;;;;;;742747;186;914960;-75
2021/06/06 06:35:12;;;;;;;19.10;13.80;;;;;;;;;;743668;186;915107;-75
2021/06/06 06:37:38;;;;;;;15.60;13.27;;;;;;;;;;745499;186;818353;-76
2021/06/06 06:40:05;;;;;;;17.27;12.85;;;;;;;;;;743296;186;915415;-76
2021/06/06 06:42:30;;;;;;;17.40;12.50;;;;;;;;;;744006;186;915148;-76
2021/06/06 06:44:56;;;;;;;13.57;11.30;;;;;;;;;;742827;186;916028;-78
2021/06/06 06:47:22;;;;;;;11.37;10.17;;;;;;;;;;740925;186;915640;-75
2021/06/06 06:49:48;;;;;;;20.10;12.17;;;;;;;;;;754947;186;780519;-76
2021/06/06 06:52:14;;;;;;;13.80;9.67;;;;;;;;;;742904;186;915546;-75
2021/06/06 06:54:40;;;;;;;11.50;9.40;;;;;;;;;;740457;186;1014124;-75
2021/06/06 06:57:06;;;;;;;15.77;10.37;;;;;;;;;;737452;187;915952;-76
2021/06/06 06:59:32;;;;;;;10.13;9.00;;;;;;;;;;750593;184;1030248;-76
2021/06/06 07:01:57;;;;;;;10.50;7.80;;;;;;;;;;737722;187;915303;-75
2021/06/06 07:04:23;;;;;;;13.43;9.60;;;;;;;;;;748630;186;854285;-76
2021/06/06 07:06:49;;;;;;;9.00;8.10;;;;;;;;;;747163;186;823966;-75
2021/06/06 07:09:15;;;;;;;10.27;9.20;;;;;;;;;;743522;187;918152;-76
2021/06/06 07:11:41;;;;;;;7.70;6.90;;;;;;;;;;748035;187;908515;-76
2021/06/06 07:14:07;;;;;;;11.17;6.87;;;;;;;;;;748250;187;878889;-76
2021/06/06 07:16:32;;;;;;;10.07;7.00;;;;;;;;;;741965;187;874527;-76
2021/06/06 07:18:59;;;;;;;8.13;6.17;;;;;;;;;;741812;187;914013;-76
2021/06/06 07:21:25;;;;;;;8.07;6.43;;;;;;;;;;745925;187;915409;-76
2021/06/06 07:23:50;;;;;;;7.77;5.80;;;;;;;;;;746315;187;811639;-74
2021/06/06 07:26:18;;;;;;;6.73;5.50;;;;;;;;;;741197;187;714037;-76
2021/06/06 07:28:43;;;;;;;7.50;5.30;;;;;;;;;;738359;187;904834;-76
2021/06/06 07:31:09;;;;;;;13.20;6.30;;;;;;;;;;745634;187;909525;-77
2021/06/06 07:33:35;;;;;;;8.60;6.30;;;;;;;;;;740081;187;1010180;-75
2021/06/06 07:36:00;;;;;;;4.80;4.23;;;;;;;;;;746044;187;816092;-77
2021/06/06 07:38:26;;;;;;;13.37;5.00;;;;;;;;;;748573;187;920280;-76
2021/06/06 07:40:52;;;;;;;6.27;4.80;;;;;;;;;;742372;187;916471;-76
2021/06/06 07:43:18;;;;;;;8.07;4.77;;;;;;;;;;749020;184;821252;-75
2021/06/06 07:45:44;;;;;;;6.47;4.90;;;;;;;;;;745959;186;914913;-78
2021/06/06 07:48:10;;;;;;;6.03;5.30;;;;;;;;;;741330;186;919038;-76
2021/06/06 07:50:35;;;;;;;9.10;5.27;;;;;;;;;;742893;186;926984;-77
2021/06/06 07:53:01;;;;;;;6.90;5.40;;;;;;;;;;741392;186;927540;-76
2021/06/06 07:55:27;;;;;;;8.10;5.63;;;;;;;;;;740624;186;916948;-78
2021/06/06 07:57:53;;;;;;;8.97;5.60;;;;;;;;;;740743;186;916187;-77
2021/06/06 08:00:20;;;;;;;8.20;5.97;;;;;;;;;;741258;186;918930;-76
2021/06/06 08:02:46;;;;;;;8.10;6.77;;;;;;;;;;745693;186;816105;-77
2021/06/06 08:05:12;;;;;;;7.90;5.60;;;;;;;;;;742923;186;863346;-77
2021/06/06 08:07:38;;;;;;;11.50;7.70;;;;;;;;;;737287;186;889605;-76
2021/06/06 08:10:04;;;;;;;9.17;6.70;;;;;;;;;;742179;187;909024;-77
2021/06/06 08:12:30;;;;;;;8.37;6.70;;;;;;;;;;743521;187;875907;-75
2021/06/06 08:14:56;;;;;;;10.77;6.50;;;;;;;;;;738735;186;927461;-77
2021/06/06 08:17:22;;;;;;;8.00;6.20;;;;;;;;;;740103;186;874850;-76
2021/06/06 08:19:48;;;;;;;7.60;6.70;;;;;;;;;;743258;187;1030547;-78
2021/06/06 08:22:14;;;;;;;8.70;6.30;;;;;;;;;;742961;187;1021495;-77
2021/06/06 08:24:40;;;;;;;9.23;5.90;;;;;;;;;;748630;187;828267;-77
2021/06/06 08:27:06;;;;;;;8.90;6.07;;;;;;;;;;746787;187;918061;-76
2021/06/06 08:29:32;;;;;;;9.07;6.77;;;;;;;;;;739380;187;855139;-77
2021/06/06 08:31:59;;;;;;;11.93;7.13;;;;;;;;;;734219;188;918772;-76
2021/06/06 08:34:23;;;;;;;18.05;9.25;;;;;;;;;;744382;187;913484;-77
2021/06/06 08:36:49;;;;;;;9.43;7.00;;;;;;;;;;741873;187;918587;-78
2021/06/06 08:39:19;;;;;;;10.40;7.20;;;;;;;;;;748514;187;918811;-76
2021/06/06 08:41:45;;;;;;;7.83;6.43;;;;;;;;;;741163;187;816787;-76
2021/06/06 08:44:11;;;;;;;8.33;6.60;;;;;;;;;;741624;187;798999;-77
2021/06/06 08:46:37;;;;;;;8.07;6.80;;;;;;;;;;741737;187;817274;-76
2021/06/06 08:49:03;;;;;;;7.93;6.67;;;;;;;;;;742885;187;897575;-77
2021/06/06 08:51:39;;;;;;;8.13;6.77;;;;;;;;;;748435;187;817694;-77
2021/06/06 08:54:21;;;;;;;7.37;6.57;;;;;;;;;;755653;186;917195;-77
2021/06/06 08:56:46;;;;;;;14.87;7.13;;;;;;;;;;741115;186;818644;-77
2021/06/06 08:59:12;;;;;;;17.30;6.53;;;;;;;;;;740361;186;945607;-77
2021/06/06 09:01:40;;;;;;;10.77;6.47;;;;;;;;;;747269;186;848962;-77
2021/06/06 09:04:07;;;;;;;7.60;6.47;;;;;;;;;;746654;186;919886;-77
2021/06/06 09:06:46;;;;;;;8.67;6.27;;;;;;;;;;739960;186;1536427;-76
2021/06/06 09:09:12;;;;;;;7.50;6.40;;;;;;;;;;743122;186;917968;-77
2021/06/06 09:11:39;;;;;;;16.83;6.60;;;;;;;;;;743076;186;919115;-78
2021/06/06 09:14:05;;;;;;;12.47;7.60;;;;;;;;;;743483;186;917898;-77
2021/06/06 09:16:33;;;;;;;14.47;7.60;;;;;;;;;;742607;186;751831;-76
2021/06/06 09:19:02;;;;;;;14.80;7.37;;;;;;;;;;740829;186;885925;-76
2021/06/06 09:21:28;;;;;;;10.77;6.60;;;;;;;;;;738170;187;906993;-75
2021/06/06 09:23:54;;;;;;;7.73;6.93;;;;;;;;;;745046;186;921033;-77
2021/06/06 09:26:21;;;;;;;7.60;6.67;;;;;;;;;;739409;186;1009742;-77
2021/06/06 09:28:48;;;;;;;8.50;6.87;;;;;;;;;;740323;187;805877;-77
2021/06/06 09:31:24;;;;;;;9.00;7.00;;;;;;;;;;748903;187;908936;-77
2021/06/06 09:33:50;;;;;;;14.53;6.87;;;;;;;;;;747998;187;812116;-74
2021/06/06 09:36:15;;;;;;;11.23;7.27;;;;;;;;;;744612;187;918299;-78
2021/06/06 09:38:41;;;;;;;19.25;7.65;;;;;;;;;;742885;187;835439;-77
2021/06/06 09:41:12;;;;;;;6.77;5.90;;;;;;;;;;748591;187;817770;-77
2021/06/06 09:43:38;;;;;;;9.20;8.03;;;;;;;;;;746092;187;1127454;-77
2021/06/06 09:46:05;;;;;;;11.33;8.80;;;;;;;;;;744272;187;798429;-78
2021/06/06 09:48:33;;;;;;;14.70;8.53;;;;;;;;;;739453;187;910419;-77
2021/06/06 09:50:56;;;;;;;10.43;8.83;;;;;;;;;;740927;187;913158;-76
2021/06/06 09:53:24;;;;;;;15.27;9.77;;;;;;;;;;746500;187;814788;-77
2021/06/06 09:55:50;;;;;;;13.60;8.47;;;;;;;;;;744208;187;914127;-76
2021/06/06 09:58:16;;;;;;;16.20;9.37;;;;;;;;;;751368;187;1018929;-76
2021/06/06 10:00:42;;;;;;;8.77;7.30;;;;;;;;;;742453;187;811631;-77
2021/06/06 10:03:13;;;;;;;20.77;8.55;;;;;;;;;;741985;187;813173;-75
2021/06/06 10:05:39;;;;;;;12.40;10.00;;;;;;;;;;740687;185;914033;-77
2021/06/06 10:08:06;;;;;;;11.10;9.07;;;;;;;;;;750980;186;1016464;-76
2021/06/06 10:10:35;;;;;;;9.13;8.13;;;;;;;;;;749208;186;1009644;-76
2021/06/06 10:13:01;;;;;;;8.60;7.47;;;;;;;;;;743061;186;708263;-75
2021/06/06 10:15:30;;;;;;;8.07;6.40;;;;;;;;;;748006;186;612316;-74
2021/06/06 10:17:58;;;;;;;12.70;8.10;;;;;;;;;;743295;186;757388;-75
2021/06/06 10:20:24;;;;;;;9.73;7.17;;;;;;;;;;737601;186;1475072;-74
2021/06/06 10:22:52;;;;;;;14.40;12.77;;;;;;;;;;745232;186;799375;-75
2021/06/06 10:25:18;;;;;;;17.20;12.47;;;;;;;;;;744277;186;1013798;-76
2021/06/06 10:27:46;;;;;;;21.60;16.30;;;;;;;;;;737182;186;1117783;-75
2021/06/06 10:30:18;;;;;;;13.60;9.30;;;;;;;;;;741367;186;914312;-75
2021/06/06 10:32:44;;;;;;;9.40;8.50;;;;;;;;;;738483;187;1017609;-77
2021/06/06 10:35:13;;;;;;;10.10;9.07;;;;;;;;;;746842;186;915408;-76
2021/06/06 10:37:39;;;;;;;14.10;9.27;;;;;;;;;;744481;186;911667;-77
2021/06/06 10:40:06;;;;;;;10.40;9.27;;;;;;;;;;746868;186;911884;-74
2021/06/06 10:42:33;;;;;;;9.63;8.52;;;;;;;;;;747437;187;807554;-75
2021/06/06 10:45:12;;;;;;;9.70;7.93;;;;;;;;;;741694;187;808463;-75
2021/06/06 10:47:40;;;;;;;13.80;8.97;;;;;;;;;;741720;187;844982;-74
2021/06/06 10:50:11;;;;;;;9.30;7.90;;;;;;;;;;739963;187;1014984;-78
2021/06/06 10:52:38;;;;;;;11.77;8.80;;;;;;;;;;740266;187;1015427;-77
2021/06/06 10:55:09;;;;;;;10.17;7.53;;;;;;;;;;752256;187;823588;-76
2021/06/06 10:57:36;;;;;;;8.43;7.40;;;;;;;;;;741640;187;906764;-74
2021/06/06 11:00:10;;;;;;;8.63;7.37;;;;;;;;;;742468;187;1730618;-75
2021/06/06 11:02:36;;;;;;;12.13;8.35;;;;;;;;;;746998;187;996694;-76
2021/06/06 11:05:03;;;;;;;8.33;6.43;;;;;;;;;;751459;187;915980;-75
2021/06/06 11:07:45;;;;;;;8.70;7.80;;;;;;;;;;740350;187;1016143;-76
2021/06/06 11:10:14;;;;;;;10.27;9.17;;;;;;;;;;740737;187;994344;-77
2021/06/06 11:12:40;;;;;;;8.10;6.40;;;;;;;;;;736836;187;912603;-77
2021/06/06 11:15:23;;;;;;;11.23;8.13;;;;;;;;;;743103;187;826851;-77
2021/06/06 11:17:49;;;;;;;11.33;8.63;;;;;;;;;;743836;186;634005;-77
2021/06/06 11:20:18;;;;;;;17.70;12.00;;;;;;;;;;746938;186;1008223;-78
2021/06/06 11:22:46;;;;;;;8.83;7.00;;;;;;;;;;743428;186;810301;-75
2021/06/06 11:25:18;;;;;;;10.50;7.40;;;;;;;;;;745502;186;1059171;-76
2021/06/06 11:27:49;;;;;;;9.53;7.03;;;;;;;;;;755573;186;807862;-75
2021/06/06 11:30:35;;;;;;;7.90;6.30;;;;;;;;;;741814;186;812548;-76
2021/06/06 11:33:04;;;;;;;15.13;8.37;;;;;;;;;;745148;186;1024750;-75
2021/06/06 11:35:46;;;;;;;7.33;6.13;;;;;;;;;;741999;186;808739;-77
2021/06/06 11:38:15;;;;;;;10.87;6.87;;;;;;;;;;740234;186;857875;-77
2021/06/06 11:40:41;;;;;;;10.80;7.03;;;;;;;;;;744168;186;934895;-76
2021/06/06 11:43:24;;;;;;;8.63;6.75;;;;;;;;;;748467;186;906581;-76
2021/06/06 11:45:51;;;;;;;9.40;7.15;;;;;;;;;;739750;186;1006805;-77
2021/06/06 11:48:15;;;;;;;7.90;6.90;;;;;;;;;;748906;186;617200;-74
2021/06/06 11:50:43;;;;;;;7.97;6.50;;;;;;;;;;743141;186;1048566;-76
2021/06/06 11:53:09;;;;;;;15.90;6.90;;;;;;;;;;748001;186;715525;-78
2021/06/06 11:55:35;;;;;;;7.97;6.60;;;;;;;;;;749870;187;908217;-77
2021/06/06 11:58:04;;;;;;;8.60;7.40;;;;;;;;;;743208;187;1225328;-77
2021/06/06 12:00:39;;;;;;;8.07;7.27;;;;;;;;;;745885;187;916721;-75
2021/06/06 12:03:06;;;;;;;8.47;7.60;;;;;;;;;;743745;187;1118742;-76
2021/06/06 12:05:32;;;;;;;7.70;6.73;;;;;;;;;;747693;187;817574;-75
2021/06/06 12:08:04;;;;;;;7.40;6.27;;;;;;;;;;741581;187;917763;-77
2021/06/06 12:10:31;;;;;;;8.53;7.10;;;;;;;;;;741940;187;853539;-77
2021/06/06 12:12:57;;;;;;;7.50;6.73;;;;;;;;;;740068;187;909368;-77
2021/06/06 12:15:22;;;;;;;8.27;7.10;;;;;;;;;;748956;187;821287;-73
2021/06/06 12:17:48;;;;;;;10.20;7.80;;;;;;;;;;743012;187;823301;-75
2021/06/06 12:20:15;;;;;;;8.80;7.90;;;;;;;;;;741708;187;854348;-77
2021/06/06 12:22:41;;;;;;;10.60;7.73;;;;;;;;;;745975;187;1020237;-78
2021/06/06 12:25:09;;;;;;;10.10;7.20;;;;;;;;;;751729;187;1108632;-76
2021/06/06 12:27:34;;;;;;;8.00;6.40;;;;;;;;;;747551;187;900300;-76
2021/06/06 12:29:59;;;;;;;10.10;7.50;;;;;;;;;;743764;186;859134;-75
2021/06/06 12:32:28;;;;;;;8.60;7.40;;;;;;;;;;745667;186;913942;-75
2021/06/06 12:34:54;;;;;;;10.00;7.03;;;;;;;;;;747180;186;835212;-77
2021/06/06 12:37:20;;;;;;;10.60;6.82;;;;;;;;;;743396;186;917645;-77
2021/06/06 12:39:46;;;;;;;7.87;7.07;;;;;;;;;;747351;186;1045312;-75
2021/06/06 12:42:12;;;;;;;9.53;6.43;;;;;;;;;;744683;186;711277;-78
2021/06/06 12:44:39;;;;;;;11.50;7.57;;;;;;;;;;743790;186;1025009;-76
2021/06/06 12:47:05;;;;;;;9.20;7.30;;;;;;;;;;737131;186;918002;-75
2021/06/06 12:49:37;;;;;;;8.97;7.47;;;;;;;;;;741291;186;851004;-77
2021/06/06 12:52:03;;;;;;;8.10;6.70;;;;;;;;;;746252;186;1016405;-77
2021/06/06 12:54:31;;;;;;;8.40;6.97;;;;;;;;;;743860;187;954204;-75
2021/06/06 12:57:02;;;;;;;9.63;6.03;;;;;;;;;;746668;186;905937;-77
2021/06/06 12:59:28;;;;;;;7.95;7.12;;;;;;;;;;750043;186;913443;-76
2021/06/06 13:02:10;;;;;;;8.37;7.20;;;;;;;;;;738733;186;914424;-77
2021/06/06 13:04:36;;;;;;;8.00;7.00;;;;;;;;;;742907;186;903795;-77
2021/06/06 13:07:02;;;;;;;8.70;6.90;;;;;;;;;;743406;187;812194;-78
2021/06/06 13:09:28;;;;;;;8.97;6.00;;;;;;;;;;748543;187;915800;-78
2021/06/06 13:12:05;;;;;;;8.57;6.30;;;;;;;;;;749624;187;812542;-78
2021/06/06 13:14:37;;;;;;;9.07;6.23;;;;;;;;;;740186;187;844232;-77
2021/06/06 13:16:57;;;;;;;13.40;6.77;;;;;;;;;;742290;187;898229;-76
2021/06/06 13:19:24;;;;;;;8.87;6.53;;;;;;;;;;747017;187;1019872;-77
2021/06/06 13:21:49;;;;;;;11.63;7.30;;;;;;;;;;739849;187;1000416;-75
2021/06/06 13:24:17;;;;;;;7.30;5.93;;;;;;;;;;737456;187;1324493;-76
2021/06/06 13:26:44;;;;;;;7.83;5.97;;;;;;;;;;746025;187;922355;-78
2021/06/06 13:29:09;;;;;;;7.03;6.27;;;;;;;;;;742131;187;952881;-77
2021/06/06 13:31:38;;;;;;;8.20;6.17;;;;;;;;;;744165;187;1015156;-76
2021/06/06 13:34:06;;;;;;;7.95;7.15;;;;;;;;;;739922;187;1081560;-77
2021/06/06 13:36:30;;;;;;;9.73;6.27;;;;;;;;;;752066;187;816797;-76
2021/06/06 13:38:55;;;;;;;8.00;6.00;;;;;;;;;;742614;187;982434;-78
2021/06/06 13:41:21;;;;;;;8.90;5.97;;;;;;;;;;748413;186;813326;-76
2021/06/06 13:43:47;;;;;;;8.40;6.03;;;;;;;;;;745118;186;1021683;-78
2021/06/06 13:46:13;;;;;;;8.23;7.10;;;;;;;;;;741896;186;1017205;-77
2021/06/06 13:48:39;;;;;;;8.50;6.17;;;;;;;;;;739932;186;917558;-76
2021/06/06 13:51:05;;;;;;;14.00;6.67;;;;;;;;;;747698;186;820412;-78
2021/06/06 13:53:31;;;;;;;6.73;5.80;;;;;;;;;;743672;186;918273;-77
2021/06/06 13:55:57;;;;;;;5.90;5.30;;;;;;;;;;741443;186;818257;-79
2021/06/06 13:58:22;;;;;;;7.07;5.30;;;;;;;;;;742292;186;814081;-79
2021/06/06 14:00:48;;;;;;;6.47;5.33;;;;;;;;;;747453;186;815663;-76
2021/06/06 14:03:14;;;;;;;6.23;5.63;;;;;;;;;;741304;186;895413;-77
2021/06/06 14:05:40;;;;;;;6.47;4.93;;;;;;;;;;741130;187;914906;-79
2021/06/06 14:08:06;;;;;;;6.47;5.47;;;;;;;;;;746219;186;815526;-78
2021/06/06 14:10:34;;;;;;;7.23;5.73;;;;;;;;;;736710;186;915834;-77
2021/06/06 14:12:57;;;;;;;7.50;5.30;;;;;;;;;;742178;186;907295;-77